aviador You're here:

KBWW Decoded Metar

in
Report Time2017-09-20 19:55:00
UTC Time2017-09-20 20:07:48
Flight Rules vfr VFR
Wind240° at 19 Gusting to 25 kt
W.Decomp.*RWY 31: 6.5 kt HW 17.9 kt LCW
W.Rank240° ranks 19
Current wind is above 240° avg. (9.8)
Visibility9999 m
Phenomena:N/A
Clouds:N/A
Expected CloudBase > 9,200 ft AGL from Temp-Dew spread
CeilingNone
Temp19°C
Dew Point-4°C (21% RH)
AAT9.7°C
QNH1002 hPa
Raw Report
KBWW 201955Z AUTO 24019G25KT 10SM CLR 19/M04 A2959 RMK AO2=

Extra information for KBWW:More info

Social comments